Main page
METAR-TAF:

METAR-TAF

Airports :

Pamplona Airport

Pamplona, Spain

latitude: 42-46N, longitude: 001-38W, elevation: 459 m

Current weather observation

The report was made 25 minutes ago, at 04:30 UTC
Calm wind
Temperature -1°C
Humidity 93%
Pressure 1018 hPa
Visibility 10 km or more
no clouds below 1500 m and no cumulonimbus

METAR: LEPP 160430Z 00000KT CAVOK M01/M02 Q1018

Time: 05:55 (04:55 UTC)

Forecast

The report was made 2 hours and 55 minutes ago, at 02:00 UTC
Forecast valid from 16 at 03 UTC to 17 at 03 UTC
Wind 5 kt from variable directions
Visibility 10 km or more
no clouds below 1500 m and no cumulonimbus
Probability 30% :
Temporary
from 16 at 03 UTC to 16 at 08 UTC
Visibility: 3000 m
Broken clouds at a height of 500 ft
mist

TAF: LEPP 160200Z 1603/1703 VRB05KT CAVOK TX10/1615Z TNM01/1605Z PROB30 TEMPO 1603/1608 3000 BR BKN005

Weather observations and forecasts of more than 4000 airports (METAR and TAF reports).

The available stations are represented by yellow and red dots on the map.

Hover mouse over dot to see the name of the station.

Then click to see weather observations and forecasts.

To change the map : click on the green buttons with a black cross to zoom in, on the green button with a dash to zoom out, or on the green arrows for adjacent maps.


METAR-TAF: